createdAt,value
2023-03-21T00:00:04.164Z,96.63
2023-03-21T00:02:08.631Z,96.33
2023-03-21T00:04:13.824Z,96.33
2023-03-21T00:06:17.803Z,96.35
2023-03-21T00:08:21.914Z,96.05
2023-03-21T00:10:39.232Z,95.91
2023-03-21T00:12:44.356Z,96.16
2023-03-21T00:14:48.169Z,96.14
2023-03-21T00:16:52.153Z,96.16
2023-03-21T00:18:58.771Z,95.99
2023-03-21T00:21:37.621Z,96.19
2023-03-21T00:23:30.180Z,96.34
2023-03-21T00:25:33.905Z,95.75
2023-03-21T00:28:05.302Z,96.05
2023-03-21T00:30:02.189Z,96.00
2023-03-21T00:32:06.284Z,95.56
2023-03-21T00:36:16.247Z,95.96
2023-03-21T00:38:20.157Z,95.81
2023-03-21T00:40:30.996Z,95.84
2023-03-21T00:42:36.902Z,96.35
2023-03-21T00:44:41.853Z,96.10
2023-03-21T00:46:57.294Z,96.30
2023-03-21T00:49:07.935Z,96.27
2023-03-21T00:51:26.148Z,96.09
2023-03-21T00:53:31.420Z,96.29
2023-03-21T00:55:36.278Z,96.38
2023-03-21T00:57:40.481Z,96.53
2023-03-21T00:59:44.856Z,96.72
2023-03-21T01:01:49.626Z,96.69
2023-03-21T01:04:04.957Z,96.88
2023-03-21T01:06:08.905Z,97.05
2023-03-21T01:08:26.677Z,96.96
2023-03-21T01:10:33.050Z,96.88
2023-03-21T01:12:37.208Z,96.96
2023-03-21T01:14:40.794Z,96.98
2023-03-21T01:16:45.099Z,96.81
2023-03-21T01:18:48.664Z,97.23
2023-03-21T01:20:52.835Z,97.32
2023-03-21T01:22:56.605Z,97.27
2023-03-21T01:25:19.323Z,97.65
2023-03-21T01:27:24.905Z,97.92
2023-03-21T01:29:28.664Z,97.83
2023-03-21T01:31:34.470Z,98.20
2023-03-21T01:33:38.137Z,98.07
2023-03-21T01:35:51.583Z,97.94
2023-03-21T01:37:59.962Z,98.07
2023-03-21T01:40:06.424Z,98.09
2023-03-21T01:42:14.218Z,98.21
2023-03-21T01:44:20.047Z,98.08
2023-03-21T01:46:47.715Z,98.12
2023-03-21T01:49:28.196Z,98.26
2023-03-21T01:51:45.824Z,98.49
2023-03-21T01:53:49.501Z,99.04
2023-03-21T01:55:55.598Z,99.13
2023-03-21T01:58:32.209Z,99.66
2023-03-21T02:00:58.364Z,99.46
2023-03-21T02:03:26.217Z,99.61
2023-03-21T02:05:45.701Z,100.00
2023-03-21T02:07:52.884Z,99.72
2023-03-21T02:09:57.576Z,99.72
2023-03-21T02:12:03.298Z,99.35
2023-03-21T02:14:17.592Z,99.74
2023-03-21T02:16:47.498Z,99.72
2023-03-21T02:19:01.193Z,99.65
2023-03-21T02:21:38.971Z,99.90
2023-03-21T02:24:17.539Z,100.00
2023-03-21T02:27:03.469Z,100.00
2023-03-21T02:29:28.069Z,100.00
2023-03-21T02:31:44.324Z,100.00
2023-03-21T02:34:22.568Z,100.00
2023-03-21T02:36:37.473Z,100.00
2023-03-21T02:38:49.097Z,100.00
2023-03-21T02:41:03.379Z,100.00
2023-03-21T02:43:22.566Z,100.00
2023-03-21T02:45:31.777Z,100.00
2023-03-21T02:47:41.814Z,100.00
2023-03-21T02:49:52.220Z,100.00
2023-03-21T02:52:05.512Z,100.00
2023-03-21T02:54:34.906Z,100.00
2023-03-21T02:56:43.896Z,100.00
2023-03-21T02:58:49.984Z,100.00
2023-03-21T03:00:55.610Z,100.00
2023-03-21T03:03:11.494Z,100.00
2023-03-21T03:05:21.710Z,100.00
2023-03-21T03:07:40.965Z,100.00
2023-03-21T03:10:00.965Z,100.00
2023-03-21T03:12:13.967Z,100.00
2023-03-21T03:15:02.212Z,100.00
2023-03-21T03:17:19.287Z,100.00
2023-03-21T03:19:31.198Z,100.00
2023-03-21T03:21:42.409Z,100.00
2023-03-21T03:23:50.744Z,100.00
2023-03-21T03:25:58.873Z,100.00
2023-03-21T03:28:05.914Z,100.00
2023-03-21T03:30:12.536Z,100.00
2023-03-21T03:32:21.177Z,100.00
2023-03-21T03:34:28.747Z,100.00
2023-03-21T03:36:36.483Z,100.00
2023-03-21T03:38:47.942Z,100.00
2023-03-21T03:40:59.857Z,100.00
2023-03-21T03:43:19.773Z,100.00
2023-03-21T03:45:29.143Z,100.00
2023-03-21T03:47:50.720Z,100.00
2023-03-21T03:50:10.181Z,100.00
2023-03-21T03:52:20.546Z,100.00
2023-03-21T03:54:38.152Z,100.00
2023-03-21T03:56:44.278Z,100.00
2023-03-21T03:58:48.320Z,100.00
2023-03-21T04:00:56.702Z,100.00
2023-03-21T04:03:00.780Z,100.00
2023-03-21T04:05:05.666Z,100.00
2023-03-21T04:07:09.866Z,100.00
2023-03-21T04:09:20.976Z,100.00
2023-03-21T04:11:29.237Z,100.00
2023-03-21T04:13:35.667Z,100.00
2023-03-21T04:15:43.428Z,100.00
2023-03-21T04:17:51.876Z,100.00
2023-03-21T04:20:05.492Z,100.00
2023-03-21T04:22:12.691Z,100.00
2023-03-21T04:24:19.630Z,100.00
2023-03-21T04:26:28.077Z,100.00
2023-03-21T04:28:53.558Z,100.00
2023-03-21T04:31:05.127Z,100.00
2023-03-21T04:33:21.356Z,100.00
2023-03-21T04:35:31.525Z,100.00
2023-03-21T04:37:40.582Z,100.00
2023-03-21T04:39:49.708Z,100.00
2023-03-21T04:41:53.350Z,100.00
2023-03-21T04:43:59.970Z,100.00
2023-03-21T04:46:03.350Z,100.00
2023-03-21T04:48:07.503Z,100.00
2023-03-21T04:50:13.089Z,100.00
2023-03-21T04:52:17.289Z,100.00
2023-03-21T04:54:21.162Z,100.00
2023-03-21T04:56:30.755Z,100.00
2023-03-21T04:58:34.309Z,100.00
2023-03-21T05:00:39.204Z,100.00
2023-03-21T05:02:42.456Z,100.00
2023-03-21T05:04:45.751Z,100.00
2023-03-21T05:06:49.099Z,100.00
2023-03-21T05:08:52.768Z,100.00
2023-03-21T05:10:56.025Z,100.00
2023-03-21T05:13:03.587Z,100.00
2023-03-21T05:15:10.137Z,100.00
2023-03-21T05:17:23.352Z,100.00
2023-03-21T05:19:34.964Z,100.00
2023-03-21T05:21:41.869Z,100.00
2023-03-21T05:23:56.055Z,100.00
2023-03-21T05:25:59.508Z,100.00
2023-03-21T05:28:31.673Z,100.00
2023-03-21T05:30:36.875Z,100.00
2023-03-21T05:32:42.392Z,100.00
2023-03-21T05:34:47.961Z,100.00
2023-03-21T05:36:51.347Z,100.00
2023-03-21T05:38:55.153Z,100.00
2023-03-21T05:40:58.569Z,100.00
2023-03-21T05:43:01.939Z,100.00
2023-03-21T05:45:06.248Z,100.00
2023-03-21T05:47:10.922Z,100.00
2023-03-21T05:49:25.455Z,100.00
2023-03-21T05:51:32.208Z,100.00
2023-03-21T05:53:35.480Z,100.00
2023-03-21T05:55:39.765Z,100.00
2023-03-21T05:57:48.150Z,100.00
2023-03-21T05:59:59.497Z,100.00
2023-03-21T06:02:04.419Z,100.00
2023-03-21T06:04:07.904Z,100.00
2023-03-21T06:06:13.696Z,100.00
2023-03-21T06:08:25.104Z,100.00
2023-03-21T06:10:28.602Z,100.00
2023-03-21T06:12:32.090Z,100.00
2023-03-21T06:14:58.200Z,100.00
2023-03-21T06:17:11.117Z,100.00
2023-03-21T06:19:20.748Z,100.00
2023-03-21T06:21:44.198Z,100.00
2023-03-21T06:23:48.692Z,100.00
2023-03-21T06:25:52.447Z,100.00
2023-03-21T06:27:56.424Z,100.00
2023-03-21T06:29:59.856Z,100.00
2023-03-21T06:32:07.600Z,100.00
2023-03-21T06:34:11.850Z,100.00
2023-03-21T06:36:15.470Z,100.00
2023-03-21T06:38:20.799Z,100.00
2023-03-21T06:40:24.564Z,100.00
2023-03-21T06:42:30.158Z,100.00
2023-03-21T06:44:38.237Z,100.00
2023-03-21T06:46:45.321Z,100.00
2023-03-21T06:48:52.612Z,100.00
2023-03-21T06:50:56.701Z,100.00
2023-03-21T06:53:02.061Z,100.00
2023-03-21T06:55:11.523Z,100.00
2023-03-21T06:57:14.996Z,100.00
2023-03-21T06:59:18.772Z,100.00
2023-03-21T07:01:30.709Z,100.00
2023-03-21T07:03:41.674Z,100.00
2023-03-21T07:05:45.462Z,100.00
2023-03-21T07:07:52.382Z,100.00
2023-03-21T07:09:55.655Z,100.00
2023-03-21T07:12:01.051Z,100.00
2023-03-21T07:14:15.196Z,100.00
2023-03-21T07:16:21.754Z,100.00
2023-03-21T07:18:25.409Z,100.00
2023-03-21T07:20:29.014Z,100.00
2023-03-21T07:22:32.286Z,100.00
2023-03-21T07:24:35.526Z,100.00
2023-03-21T07:26:38.835Z,100.00
2023-03-21T07:28:43.610Z,100.00
2023-03-21T07:30:53.072Z,100.00
2023-03-21T07:32:56.366Z,100.00
2023-03-21T07:35:01.804Z,100.00
2023-03-21T07:37:05.630Z,100.00
2023-03-21T07:39:08.647Z,100.00
2023-03-21T07:41:12.198Z,100.00
2023-03-21T07:43:16.177Z,100.00
2023-03-21T07:45:23.788Z,100.00
2023-03-21T07:47:29.794Z,100.00
2023-03-21T07:49:33.632Z,100.00
2023-03-21T07:51:37.861Z,100.00
2023-03-21T07:53:44.000Z,100.00
2023-03-21T07:55:52.537Z,100.00
2023-03-21T07:57:56.527Z,100.00
2023-03-21T08:00:01.146Z,100.00
2023-03-21T08:02:07.645Z,100.00
2023-03-21T08:04:12.017Z,100.00
2023-03-21T08:06:16.619Z,100.00
2023-03-21T08:08:20.455Z,100.00
2023-03-21T08:10:25.263Z,100.00
2023-03-21T08:12:29.342Z,100.00
2023-03-21T08:14:34.066Z,100.00
2023-03-21T08:16:37.923Z,100.00
2023-03-21T08:18:43.954Z,100.00
2023-03-21T08:20:47.869Z,100.00
2023-03-21T08:22:52.741Z,99.60
2023-03-21T08:24:56.165Z,98.54
2023-03-21T08:27:00.387Z,98.42
2023-03-21T08:29:04.108Z,98.23
2023-03-21T08:31:10.013Z,98.70
2023-03-21T08:33:14.766Z,98.42
2023-03-21T08:35:20.739Z,98.05
2023-03-21T08:37:24.743Z,97.07
2023-03-21T08:39:28.729Z,95.55
2023-03-21T08:41:32.660Z,94.23
2023-03-21T08:43:36.244Z,93.66
2023-03-21T08:45:40.579Z,93.99
2023-03-21T08:47:44.592Z,93.40
2023-03-21T08:49:48.918Z,93.10
2023-03-21T08:51:58.067Z,92.37
2023-03-21T08:54:02.352Z,91.49
2023-03-21T08:56:07.272Z,91.09
2023-03-21T08:58:11.551Z,90.20
2023-03-21T09:00:18.517Z,89.84
2023-03-21T09:02:22.549Z,88.37
2023-03-21T09:04:30.850Z,87.89
2023-03-21T09:06:34.938Z,88.16
2023-03-21T09:08:42.167Z,87.52
2023-03-21T09:10:46.503Z,87.15
2023-03-21T09:12:52.263Z,87.63
2023-03-21T09:14:56.605Z,87.51
2023-03-21T09:17:01.249Z,86.92
2023-03-21T09:19:08.979Z,87.03
2023-03-21T09:21:15.032Z,86.92
2023-03-21T09:23:18.849Z,87.03
2023-03-21T09:25:25.106Z,86.72
2023-03-21T09:27:28.994Z,85.25
2023-03-21T09:29:34.249Z,84.72
2023-03-21T09:31:40.248Z,84.58
2023-03-21T09:33:45.178Z,83.91
2023-03-21T09:35:50.751Z,82.20
2023-03-21T09:37:57.711Z,81.68
2023-03-21T09:40:09.533Z,80.62
2023-03-21T09:42:31.054Z,78.74
2023-03-21T09:44:47.760Z,79.79
2023-03-21T09:46:57.426Z,79.01
2023-03-21T09:49:06.166Z,79.41
2023-03-21T09:51:16.889Z,79.35
2023-03-21T09:53:29.515Z,77.78
2023-03-21T09:55:36.055Z,76.87
2023-03-21T09:57:45.259Z,77.42
2023-03-21T09:59:53.443Z,77.43
2023-03-21T10:01:58.780Z,76.63
2023-03-21T10:04:05.852Z,76.89
2023-03-21T10:06:15.950Z,77.05
2023-03-21T10:08:26.385Z,76.93
2023-03-21T10:10:34.042Z,77.24
2023-03-21T10:12:37.867Z,77.05
2023-03-21T10:14:47.556Z,77.35
2023-03-21T10:16:53.829Z,77.71
2023-03-21T10:18:59.133Z,77.70
2023-03-21T10:21:04.641Z,76.52
2023-03-21T10:23:13.319Z,76.01
2023-03-21T10:25:23.200Z,76.72
2023-03-21T10:27:26.945Z,76.53
2023-03-21T10:29:37.442Z,76.36
2023-03-21T10:31:45.241Z,77.07
2023-03-21T10:33:54.335Z,77.33
2023-03-21T10:36:03.056Z,76.98
2023-03-21T10:38:08.284Z,78.29
2023-03-21T10:40:17.958Z,79.19
2023-03-21T10:42:25.147Z,79.74
2023-03-21T10:44:31.940Z,80.55
2023-03-21T10:46:36.400Z,80.92
2023-03-21T10:48:46.592Z,80.86
2023-03-21T10:50:53.266Z,79.87
2023-03-21T10:53:01.063Z,78.37
2023-03-21T10:55:18.771Z,78.08
2023-03-21T10:57:24.496Z,76.94
2023-03-21T10:59:37.224Z,76.02
2023-03-21T11:01:44.026Z,75.92
2023-03-21T11:03:49.717Z,75.78
2023-03-21T11:05:57.928Z,73.11
2023-03-21T11:08:04.776Z,72.17
2023-03-21T11:10:19.957Z,71.68
2023-03-21T11:12:37.629Z,72.43
2023-03-21T11:14:43.779Z,72.91
2023-03-21T11:16:47.632Z,73.49
2023-03-21T11:18:54.707Z,73.15
2023-03-21T11:21:03.987Z,72.02
2023-03-21T11:23:08.945Z,73.51
2023-03-21T11:25:20.708Z,75.05
2023-03-21T11:27:25.168Z,75.36
2023-03-21T11:29:33.271Z,74.48
2023-03-21T11:31:41.323Z,74.56
2023-03-21T11:33:57.230Z,74.52
2023-03-21T11:36:03.734Z,74.63
2023-03-21T11:38:24.822Z,75.09
2023-03-21T11:40:31.203Z,75.88
2023-03-21T11:42:44.420Z,75.37
2023-03-21T11:44:48.195Z,74.21
2023-03-21T11:46:53.277Z,73.97
2023-03-21T11:49:01.604Z,73.18
2023-03-21T11:51:13.460Z,73.30
2023-03-21T11:53:28.186Z,73.43
2023-03-21T11:55:43.000Z,73.80
2023-03-21T11:57:54.859Z,72.92
2023-03-21T12:00:09.565Z,72.61
2023-03-21T12:02:38.278Z,72.65
2023-03-21T12:04:47.862Z,72.66
2023-03-21T12:06:55.523Z,72.36
2023-03-21T12:09:08.928Z,71.77
2023-03-21T12:11:18.873Z,71.66
2023-03-21T12:13:32.880Z,71.83
2023-03-21T12:15:43.969Z,72.37
2023-03-21T12:17:57.361Z,71.91
2023-03-21T12:20:40.873Z,71.70
2023-03-21T12:22:54.536Z,72.17
2023-03-21T12:25:02.559Z,71.19
2023-03-21T12:27:15.812Z,71.38
2023-03-21T12:29:34.713Z,71.40
2023-03-21T12:31:53.837Z,71.80
2023-03-21T12:34:14.030Z,72.29
2023-03-21T12:36:46.663Z,72.28
2023-03-21T12:39:00.893Z,73.19
2023-03-21T12:41:21.256Z,73.02
2023-03-21T12:43:41.228Z,72.43
2023-03-21T12:45:50.347Z,73.03
2023-03-21T12:48:01.919Z,73.92
2023-03-21T12:50:15.267Z,73.61
2023-03-21T12:52:25.208Z,74.53
2023-03-21T12:54:33.670Z,74.88
2023-03-21T12:56:46.942Z,74.73
2023-03-21T12:58:56.549Z,74.24
2023-03-21T13:01:04.792Z,73.43
2023-03-21T13:03:15.493Z,73.46
2023-03-21T13:05:22.227Z,73.27
2023-03-21T13:07:30.780Z,74.05
2023-03-21T13:09:38.452Z,74.57
2023-03-21T13:11:42.460Z,74.52
2023-03-21T13:13:53.133Z,73.84
2023-03-21T13:16:08.487Z,72.90
2023-03-21T13:18:20.880Z,72.14
2023-03-21T13:20:31.475Z,71.49
2023-03-21T13:22:36.639Z,71.29
2023-03-21T13:24:44.286Z,72.04
2023-03-21T13:26:51.487Z,71.46
2023-03-21T13:28:55.073Z,70.91
2023-03-21T13:31:20.945Z,70.95
2023-03-21T13:33:30.368Z,71.13
2023-03-21T13:35:41.311Z,70.71
2023-03-21T13:37:54.390Z,70.70
2023-03-21T13:40:04.046Z,70.52
2023-03-21T13:42:21.980Z,70.47
2023-03-21T13:44:34.232Z,69.91
2023-03-21T13:46:53.317Z,69.47
2023-03-21T13:49:02.166Z,69.30
2023-03-21T13:51:07.058Z,69.49
2023-03-21T13:53:23.189Z,69.03
2023-03-21T13:55:31.114Z,69.30
2023-03-21T13:57:40.215Z,68.83
2023-03-21T13:59:46.022Z,69.38
2023-03-21T14:02:06.497Z,69.31
2023-03-21T14:04:18.147Z,68.78
2023-03-21T14:06:22.107Z,68.54
2023-03-21T14:08:37.243Z,68.95
2023-03-21T14:10:46.724Z,69.29
2023-03-21T14:12:50.757Z,69.47
2023-03-21T14:15:07.121Z,69.13
2023-03-21T14:17:15.737Z,69.05
2023-03-21T14:19:19.556Z,68.75
2023-03-21T14:21:25.217Z,68.79
2023-03-21T14:23:30.386Z,69.71
2023-03-21T14:25:41.025Z,69.96
2023-03-21T14:27:52.763Z,69.95
2023-03-21T14:29:57.599Z,70.36
2023-03-21T14:32:02.626Z,70.18
2023-03-21T14:34:07.931Z,70.72
2023-03-21T14:36:16.627Z,70.80
2023-03-21T14:38:22.671Z,70.51
2023-03-21T14:40:29.556Z,71.25
2023-03-21T14:42:37.227Z,71.21
2023-03-21T14:44:58.388Z,71.17
2023-03-21T14:47:04.181Z,73.19
2023-03-21T14:49:28.198Z,74.59
2023-03-21T14:51:32.511Z,74.67
2023-03-21T14:53:40.816Z,75.26
2023-03-21T14:55:51.833Z,75.67
2023-03-21T14:57:56.686Z,76.84
2023-03-21T15:00:06.834Z,76.86
2023-03-21T15:02:19.123Z,76.57
2023-03-21T15:04:23.691Z,77.50
2023-03-21T15:06:28.290Z,77.83
2023-03-21T15:08:33.312Z,78.68
2023-03-21T15:10:39.042Z,78.48
2023-03-21T15:12:54.685Z,79.07
2023-03-21T15:15:00.092Z,78.99
2023-03-21T15:17:07.707Z,78.96
2023-03-21T15:19:19.543Z,79.75
2023-03-21T15:21:26.808Z,80.12
2023-03-21T15:23:35.292Z,80.92
2023-03-21T15:25:40.355Z,81.31
2023-03-21T15:27:45.671Z,81.99
2023-03-21T15:29:54.577Z,82.44
2023-03-21T15:31:59.901Z,83.18
2023-03-21T15:34:06.184Z,83.32
2023-03-21T15:36:11.868Z,83.67
2023-03-21T15:38:30.075Z,83.85
2023-03-21T15:40:35.858Z,84.13
2023-03-21T15:42:41.419Z,84.93
2023-03-21T15:44:51.744Z,85.52
2023-03-21T15:46:58.032Z,85.19
2023-03-21T15:49:19.867Z,86.52
2023-03-21T15:51:25.977Z,87.02
2023-03-21T15:53:35.025Z,87.44
2023-03-21T15:55:48.671Z,88.13
2023-03-21T15:57:54.319Z,87.77
2023-03-21T16:00:12.929Z,88.68
2023-03-21T16:02:22.819Z,89.06
2023-03-21T16:04:27.181Z,88.99
2023-03-21T16:06:34.947Z,88.96
2023-03-21T16:08:45.142Z,89.07
2023-03-21T16:10:50.215Z,89.95
2023-03-21T16:12:54.140Z,90.16
2023-03-21T16:14:58.750Z,90.85
2023-03-21T16:17:03.178Z,91.20
2023-03-21T16:19:09.106Z,90.95
2023-03-21T16:21:15.113Z,91.94
2023-03-21T16:23:19.448Z,91.74
2023-03-21T16:25:24.141Z,92.53
2023-03-21T16:27:28.983Z,93.11
2023-03-21T16:29:33.208Z,93.47
2023-03-21T16:31:38.241Z,93.48
2023-03-21T16:33:42.088Z,93.74
2023-03-21T16:35:47.379Z,94.75
2023-03-21T16:37:51.007Z,94.68
2023-03-21T16:39:55.799Z,94.48
2023-03-21T16:41:59.902Z,95.06
2023-03-21T16:44:04.884Z,95.28
2023-03-21T16:46:11.031Z,95.35
2023-03-21T16:48:19.965Z,95.59
2023-03-21T16:50:28.329Z,95.23
2023-03-21T16:52:33.551Z,95.47
2023-03-21T16:54:37.673Z,95.50
2023-03-21T16:56:44.426Z,95.42
2023-03-21T16:58:48.370Z,95.36
2023-03-21T17:00:52.240Z,95.55
2023-03-21T17:02:57.856Z,95.20
2023-03-21T17:05:03.734Z,95.24
2023-03-21T17:07:14.491Z,95.49
2023-03-21T17:09:26.470Z,95.42
2023-03-21T17:11:36.197Z,95.74
2023-03-21T17:13:40.012Z,95.56
2023-03-21T17:15:43.817Z,95.90
2023-03-21T17:17:50.268Z,95.74
2023-03-21T17:19:54.055Z,96.37
2023-03-21T17:21:57.626Z,96.28
2023-03-21T17:24:01.497Z,95.98
2023-03-21T17:26:10.222Z,96.28
2023-03-21T17:28:13.802Z,96.33
2023-03-21T17:30:24.538Z,96.17
2023-03-21T17:32:28.144Z,96.48
2023-03-21T17:34:31.761Z,96.81
2023-03-21T17:36:37.120Z,96.54
2023-03-21T17:38:40.967Z,97.03
2023-03-21T17:40:44.712Z,96.92
2023-03-21T17:42:51.084Z,97.15
2023-03-21T17:44:55.149Z,97.72
2023-03-21T17:46:58.938Z,97.54
2023-03-21T17:49:02.640Z,97.52
2023-03-21T17:51:07.353Z,97.41
2023-03-21T17:53:11.052Z,97.24
2023-03-21T17:55:16.035Z,97.56
2023-03-21T17:57:19.562Z,97.82
2023-03-21T17:59:24.361Z,97.58
2023-03-21T18:01:28.207Z,97.59
2023-03-21T18:03:32.157Z,97.62
2023-03-21T18:05:36.169Z,97.87
2023-03-21T18:10:07.154Z,97.90
2023-03-21T18:12:11.497Z,98.14
2023-03-21T18:14:18.283Z,98.82
2023-03-21T18:16:25.763Z,99.90
2023-03-21T18:18:29.806Z,99.96
2023-03-21T18:22:56.966Z,100.00
2023-03-21T18:25:00.744Z,100.00
2023-03-21T18:27:04.598Z,100.00
2023-03-21T18:31:33.937Z,100.00
2023-03-21T18:33:40.573Z,100.00
2023-03-21T18:35:46.337Z,100.00
2023-03-21T18:37:50.382Z,100.00
2023-03-21T18:39:54.299Z,100.00
2023-03-21T18:42:02.516Z,100.00
2023-03-21T18:44:17.770Z,100.00
2023-03-21T18:46:23.501Z,100.00
2023-03-21T18:48:31.073Z,100.00
2023-03-21T18:50:37.133Z,100.00
2023-03-21T18:52:41.020Z,100.00
2023-03-21T18:54:44.746Z,100.00
2023-03-21T18:57:34.546Z,100.00
2023-03-21T18:59:15.307Z,100.00
2023-03-21T19:01:19.913Z,100.00
2023-03-21T19:03:35.908Z,100.00
2023-03-21T19:05:42.625Z,100.00
2023-03-21T19:07:46.752Z,100.00
2023-03-21T19:10:13.911Z,100.00
2023-03-21T19:12:16.005Z,100.00
2023-03-21T19:14:20.149Z,100.00
2023-03-21T19:16:29.646Z,100.00
2023-03-21T19:18:53.481Z,100.00
2023-03-21T19:21:01.643Z,100.00
2023-03-21T19:23:10.052Z,100.00
2023-03-21T19:25:16.421Z,100.00
2023-03-21T19:27:20.559Z,100.00
2023-03-21T19:29:25.219Z,100.00
2023-03-21T19:31:30.398Z,100.00
2023-03-21T19:33:34.706Z,100.00
2023-03-21T19:35:41.325Z,100.00
2023-03-21T19:37:47.525Z,100.00
2023-03-21T19:39:51.594Z,100.00
2023-03-21T19:42:08.973Z,100.00
2023-03-21T19:44:19.603Z,100.00
2023-03-21T19:46:25.436Z,100.00
2023-03-21T19:48:29.674Z,100.00
2023-03-21T19:51:00.535Z,100.00
2023-03-21T19:53:00.193Z,100.00
2023-03-21T19:55:04.524Z,100.00
2023-03-21T19:57:10.000Z,100.00
2023-03-21T19:59:14.364Z,100.00
2023-03-21T20:01:18.466Z,100.00
2023-03-21T20:03:22.984Z,100.00
2023-03-21T20:05:27.119Z,100.00
2023-03-21T20:07:33.202Z,100.00
2023-03-21T20:09:51.285Z,100.00
2023-03-21T20:11:57.942Z,100.00
2023-03-21T20:14:03.448Z,100.00
2023-03-21T20:16:10.694Z,100.00
2023-03-21T20:18:14.770Z,100.00
2023-03-21T20:20:19.450Z,100.00
2023-03-21T20:22:35.940Z,100.00
2023-03-21T20:24:48.845Z,100.00
2023-03-21T20:26:55.306Z,100.00
2023-03-21T20:29:25.128Z,100.00
2023-03-21T20:31:24.054Z,100.00
2023-03-21T20:33:28.665Z,100.00
2023-03-21T20:36:22.957Z,100.00
2023-03-21T20:37:56.734Z,100.00
2023-03-21T20:40:02.386Z,100.00
2023-03-21T20:42:07.362Z,100.00
2023-03-21T20:46:37.593Z,100.00
2023-03-21T20:48:42.698Z,100.00
2023-03-21T20:50:47.340Z,100.00
2023-03-21T20:53:05.980Z,100.00
2023-03-21T20:55:13.533Z,100.00
2023-03-21T20:57:18.475Z,100.00
2023-03-21T20:59:27.162Z,100.00
2023-03-21T21:01:32.529Z,100.00
2023-03-21T21:03:39.692Z,100.00
2023-03-21T21:05:47.106Z,100.00
2023-03-21T21:07:53.950Z,100.00
2023-03-21T21:09:57.960Z,100.00
2023-03-21T21:12:07.079Z,100.00
2023-03-21T21:14:10.814Z,100.00
2023-03-21T21:16:17.399Z,100.00
2023-03-21T21:18:21.430Z,100.00
2023-03-21T21:20:25.723Z,100.00
2023-03-21T21:22:29.588Z,100.00
2023-03-21T21:24:33.526Z,100.00
2023-03-21T21:26:37.578Z,100.00
2023-03-21T21:28:43.608Z,100.00
2023-03-21T21:30:48.528Z,100.00
2023-03-21T21:32:53.009Z,100.00
2023-03-21T21:34:56.772Z,100.00
2023-03-21T21:37:01.199Z,100.00
2023-03-21T21:39:06.258Z,100.00
2023-03-21T21:41:15.878Z,100.00
2023-03-21T21:43:20.920Z,100.00
2023-03-21T21:45:26.830Z,100.00
2023-03-21T21:47:30.677Z,100.00
2023-03-21T21:49:34.972Z,100.00
2023-03-21T21:51:41.495Z,100.00
2023-03-21T21:53:46.665Z,100.00
2023-03-21T21:55:51.239Z,100.00
2023-03-21T21:57:58.240Z,100.00
2023-03-21T22:00:06.495Z,100.00
2023-03-21T22:02:17.201Z,100.00
2023-03-21T22:04:28.427Z,100.00
2023-03-21T22:06:32.438Z,100.00
2023-03-21T22:08:36.286Z,100.00
2023-03-21T22:10:40.170Z,100.00
2023-03-21T22:12:43.914Z,100.00
2023-03-21T22:14:54.870Z,100.00
2023-03-21T22:17:03.949Z,100.00
2023-03-21T22:19:08.914Z,100.00
2023-03-21T22:21:12.246Z,100.00
2023-03-21T22:23:15.792Z,100.00
2023-03-21T22:25:19.960Z,100.00
2023-03-21T22:27:25.385Z,100.00
2023-03-21T22:29:30.043Z,100.00
2023-03-21T22:31:33.741Z,100.00
2023-03-21T22:33:37.200Z,100.00
2023-03-21T22:35:42.183Z,100.00
2023-03-21T22:37:45.516Z,100.00
2023-03-21T22:39:49.177Z,100.00
2023-03-21T22:41:53.141Z,100.00
2023-03-21T22:43:56.738Z,100.00
2023-03-21T22:46:00.578Z,100.00
2023-03-21T22:48:04.315Z,100.00
2023-03-21T22:50:08.876Z,100.00
2023-03-21T22:52:14.548Z,100.00
2023-03-21T22:54:18.114Z,100.00
2023-03-21T22:56:21.640Z,100.00
2023-03-21T22:58:25.218Z,100.00
2023-03-21T23:00:28.808Z,100.00
2023-03-21T23:02:32.248Z,100.00
2023-03-21T23:04:36.066Z,100.00
2023-03-21T23:06:41.267Z,100.00
2023-03-21T23:08:46.586Z,100.00
2023-03-21T23:10:51.770Z,100.00
2023-03-21T23:12:55.876Z,100.00
2023-03-21T23:15:00.440Z,100.00
2023-03-21T23:17:04.975Z,100.00
2023-03-21T23:19:10.535Z,100.00
2023-03-21T23:21:16.521Z,100.00
2023-03-21T23:23:20.257Z,100.00
2023-03-21T23:25:25.508Z,100.00
2023-03-21T23:27:29.745Z,100.00
2023-03-21T23:29:33.310Z,100.00
2023-03-21T23:31:37.327Z,100.00
2023-03-21T23:33:41.102Z,100.00
2023-03-21T23:35:46.203Z,100.00
2023-03-21T23:37:52.896Z,100.00
2023-03-21T23:39:57.018Z,100.00
2023-03-21T23:42:02.233Z,100.00
2023-03-21T23:44:06.136Z,100.00
2023-03-21T23:46:10.451Z,100.00
2023-03-21T23:48:14.097Z,100.00
2023-03-21T23:50:17.932Z,100.00
2023-03-21T23:52:21.812Z,100.00
2023-03-21T23:54:25.296Z,100.00
2023-03-21T23:56:28.964Z,100.00
2023-03-21T23:58:34.201Z,100.00
